Time;durP1;ratioP1;P1;durP2;ratioP2;P2;SDS_P1;SDS_P2;PMS_P1;PMS_P2;Temp;Humidity;BMP_temperature;BMP_pressure;BME280_temperature;BME280_humidity;BME280_pressure;Samples;Min_cycle;Max_cycle;Signal;HPM_P1;HPM_P2
2021/01/02 00:01:05;;;;;;;;;;;5.40;99.90;;;4.25;100.00;101126.41;6171008;23;19972;-90
2021/01/02 00:03:44;;;;;;;;;;;4.60;99.90;;;4.34;100.00;101131.72;6180003;23;19908;-91
2021/01/02 00:06:31;;;;;;;;;;;5.20;99.90;;;4.33;100.00;101131.88;6203506;23;19910;-91
2021/01/02 00:09:09;;;;;;;;;;;4.70;99.90;;;4.41;100.00;101137.34;6152297;23;19903;-91
2021/01/02 00:12:19;;;;;;;;;;;4.80;99.90;;;4.41;100.00;101133.78;6177743;23;19943;-93
2021/01/02 00:15:03;;;;;;;;;;;4.90;99.90;;;4.41;100.00;101134.66;6202996;23;19931;-92
2021/01/02 00:18:09;;;;;;;;;;;5.70;99.90;;;4.42;100.00;101144.44;6181896;23;19910;-91
2021/01/02 00:20:38;;;;;;;;;;;5.00;99.90;;;4.46;100.00;101145.81;6204170;23;20339;-93
2021/01/02 00:23:37;;;;;;;;;;;5.10;99.90;;;4.48;100.00;101143.84;6202717;23;19904;-92
2021/01/02 00:26:22;;;;;;;;;;;5.10;99.90;;;4.54;100.00;101143.19;6203175;23;19904;-92
2021/01/02 00:29:24;;;;;;;;;;;5.50;99.90;;;4.57;100.00;101142.91;6176819;23;19982;-93
2021/01/02 00:32:25;;;;;;;;;;;5.80;99.90;;;4.62;100.00;101137.91;6211397;23;19904;-91
2021/01/02 00:34:50;;;;;;;;;;;5.10;99.90;;;4.67;100.00;101140.97;6204139;23;19908;-92
2021/01/02 00:37:29;;;;;;;;;;;5.10;99.90;;;4.92;100.00;101135.78;6204136;23;19911;-90
2021/01/02 00:40:12;;;;;;;;;;;5.20;99.90;;;4.93;100.00;101126.69;6201056;23;19930;-90
2021/01/02 00:42:42;;;;;;;;;;;5.20;99.90;;;4.88;100.00;101129.00;6201930;23;19930;-90
2021/01/02 00:45:23;;;;;;;;;;;5.10;99.90;;;4.75;100.00;101124.84;6204736;23;19903;-92
2021/01/02 00:47:54;;;;;;;;;;;5.10;99.90;;;4.78;100.00;101133.63;6182376;23;19958;-93
2021/01/02 00:50:22;;;;;;;;;;;5.30;99.90;;;4.73;100.00;101132.28;6178815;23;19904;-89
2021/01/02 00:52:53;;;;;;;;;;;5.10;99.90;;;4.71;100.00;101128.88;6177443;23;19994;-91
2021/01/02 00:55:42;;;;;;;;;;;5.10;99.90;;;4.63;100.00;101131.47;6201474;23;20058;-91
2021/01/02 00:58:18;;;;;;;;;;;5.20;99.90;;;4.66;100.00;101136.56;6179368;23;19979;-90
2021/01/02 01:00:44;;;;;;;;;;;5.20;99.90;;;4.67;100.00;101149.06;6177820;23;19904;-90
2021/01/02 01:03:13;;;;;;;;;;;5.20;99.90;;;4.73;100.00;101145.75;6174694;23;19904;-90
2021/01/02 01:05:39;;;;;;;;;;;5.30;99.90;;;4.84;100.00;101149.22;6200511;23;19907;-92
2021/01/02 01:08:27;;;;;;;;;;;5.50;99.90;;;4.79;100.00;101148.81;6175348;23;19911;-91
2021/01/02 01:11:03;;;;;;;;;;;5.20;99.90;;;4.80;100.00;101153.22;6203546;23;19904;-90
2021/01/02 01:13:32;;;;;;;;;;;5.30;99.90;;;4.74;100.00;101142.03;6176072;23;19904;-91
2021/01/02 01:16:05;;;;;;;;;;;5.30;99.90;;;4.72;100.00;101145.91;6203705;23;19912;-92
2021/01/02 01:18:58;;;;;;;;;;;5.30;99.90;;;4.72;100.00;101146.75;6181298;23;19912;-90
2021/01/02 01:21:27;;;;;;;;;;;5.30;99.90;;;4.67;100.00;101142.81;6182358;23;19927;-91
2021/01/02 01:24:13;;;;;;;;;;;5.80;99.90;;;4.62;100.00;101156.78;6179236;23;20016;-90
2021/01/02 01:27:01;;;;;;;;;;;5.20;99.90;;;4.58;100.00;101150.00;6200390;23;19958;-90
2021/01/02 01:29:47;;;;;;;;;;;5.20;99.90;;;4.50;100.00;101155.31;6175884;23;19954;-91
2021/01/02 01:32:21;;;;;;;;;;;5.10;99.90;;;4.50;100.00;101158.00;6182404;23;20280;-90
2021/01/02 01:35:00;;;;;;;;;;;5.10;99.90;;;4.50;100.00;101157.16;6178110;23;19908;-90
2021/01/02 01:37:32;;;;;;;;;;;5.10;99.90;;;4.56;100.00;101152.00;6178539;23;19926;-90
2021/01/02 01:40:07;;;;;;;;;;;5.60;99.90;;;4.58;100.00;101165.31;6178449;23;19904;-90
2021/01/02 01:42:44;;;;;;;;;;;5.10;99.90;;;4.59;100.00;101167.00;6194844;23;19916;-90
2021/01/02 01:45:45;;;;;;;;;;;5.20;99.90;;;4.57;100.00;101169.00;6194486;23;19952;-90
2021/01/02 01:48:24;;;;;;;;;;;5.20;99.90;;;4.52;100.00;101171.31;6217862;23;19915;-90
2021/01/02 01:51:03;;;;;;;;;;;5.20;99.90;;;4.51;100.00;101169.63;6179399;23;19915;-92
2021/01/02 01:53:34;;;;;;;;;;;5.20;99.90;;;4.56;100.00;101173.56;6177299;23;19907;-91
2021/01/02 01:56:20;;;;;;;;;;;5.40;99.90;;;4.57;100.00;101172.56;6226244;23;19930;-90
2021/01/02 01:59:18;;;;;;;;;;;5.20;99.90;;;4.60;100.00;101177.66;6176638;23;19958;-90
2021/01/02 02:01:55;;;;;;;;;;;5.20;99.90;;;4.60;100.00;101184.88;6197869;23;19903;-90
2021/01/02 02:05:00;;;;;;;;;;;5.20;99.90;;;4.65;100.00;101178.03;6172660;23;19910;-90
2021/01/02 02:07:41;;;;;;;;;;;5.20;99.90;;;4.66;100.00;101185.09;6197365;23;19904;-90
2021/01/02 02:10:08;;;;;;;;;;;5.30;99.90;;;4.68;100.00;101177.72;6174106;23;19904;-90
2021/01/02 02:12:46;;;;;;;;;;;5.30;99.90;;;4.65;100.00;101177.16;6174512;23;19903;-91
2021/01/02 02:15:27;;;;;;;;;;;5.30;99.90;;;4.61;100.00;101176.66;6176706;23;19912;-91
2021/01/02 02:18:14;;;;;;;;;;;5.20;99.90;;;4.59;100.00;101184.03;6178334;23;19904;-90
2021/01/02 02:20:53;;;;;;;;;;;5.20;99.90;;;4.58;100.00;101171.56;6208139;23;19904;-90
2021/01/02 02:23:40;;;;;;;;;;;5.20;99.90;;;4.55;100.00;101171.84;6210938;23;19919;-91
2021/01/02 02:26:27;;;;;;;;;;;5.20;99.90;;;4.50;100.00;101167.94;6191580;23;19916;-90
2021/01/02 02:29:30;;;;;;;;;;;5.40;99.90;;;4.40;100.00;101178.78;6174048;23;19904;-90
2021/01/02 02:32:05;;;;;;;;;;;5.10;99.90;;;4.33;100.00;101177.69;6198119;23;19905;-89
2021/01/02 02:34:40;;;;;;;;;;;5.10;99.90;;;4.32;100.00;101176.00;6199968;23;19930;-91
2021/01/02 02:37:17;;;;;;;;;;;5.00;99.90;;;4.33;100.00;101177.69;6172941;23;19904;-90
2021/01/02 02:40:07;;;;;;;;;;;4.90;99.90;;;4.28;100.00;101180.00;6177038;23;19911;-89
2021/01/02 02:42:39;;;;;;;;;;;4.90;99.90;;;4.19;100.00;101176.34;6178168;23;20224;-92
2021/01/02 02:45:12;;;;;;;;;;;4.80;99.90;;;4.19;100.00;101175.50;6173818;23;19904;-91
2021/01/02 02:48:00;;;;;;;;;;;4.80;99.90;;;4.10;100.00;101176.41;6173134;23;19935;-90
2021/01/02 02:50:31;;;;;;;;;;;5.00;99.90;;;4.07;100.00;101176.69;6195411;23;19904;-90
2021/01/02 02:53:06;;;;;;;;;;;4.70;99.90;;;4.01;100.00;101179.00;6172586;23;19904;-89
2021/01/02 02:55:42;;;;;;;;;;;5.10;99.90;;;3.93;100.00;101170.84;6172981;23;19907;-90
2021/01/02 02:58:13;;;;;;;;;;;4.00;99.90;;;3.85;100.00;101177.94;6174088;23;20329;-90
2021/01/02 03:00:39;;;;;;;;;;;4.40;99.90;;;3.74;100.00;101181.69;6175201;23;19904;-90
2021/01/02 03:03:14;;;;;;;;;;;4.40;99.90;;;3.64;100.00;101175.50;6177204;23;20343;-90
2021/01/02 03:05:46;;;;;;;;;;;4.40;99.90;;;3.53;100.00;101179.22;6175420;23;19908;-91
2021/01/02 03:08:47;;;;;;;;;;;4.30;99.90;;;3.31;100.00;101184.09;6173485;23;20202;-90
2021/01/02 03:11:33;;;;;;;;;;;4.20;99.90;;;3.25;100.00;101186.38;6197417;23;20609;-90
2021/01/02 03:14:11;;;;;;;;;;;4.10;99.90;;;3.20;100.00;101187.78;6171964;23;20006;-91
2021/01/02 03:17:22;;;;;;;;;;;5.00;99.90;;;3.00;100.00;101200.44;6198376;23;19904;-91
2021/01/02 03:20:02;;;;;;;;;;;3.90;99.90;;;2.98;100.00;101198.88;6196877;23;19908;-89
2021/01/02 03:23:00;;;;;;;;;;;3.70;99.90;;;2.97;100.00;101198.00;6173594;23;19945;-91
2021/01/02 03:25:38;;;;;;;;;;;4.00;99.90;;;2.95;100.00;101193.75;6153145;23;19908;-90
2021/01/02 03:28:29;;;;;;;;;;;2.80;99.90;;;2.91;100.00;101198.59;6201730;23;19954;-90
2021/01/02 03:30:54;;;;;;;;;;;3.60;99.90;;;2.85;100.00;101194.63;6226400;23;19904;-90
2021/01/02 03:33:20;;;;;;;;;;;4.60;99.90;;;2.78;100.00;101200.72;6202436;23;20016;-90
2021/01/02 03:35:46;;;;;;;;;;;4.50;99.90;;;2.74;100.00;101196.59;6203235;23;19915;-91
2021/01/02 03:38:23;;;;;;;;;;;4.10;99.90;;;2.74;100.00;101201.97;6200716;23;19907;-90
2021/01/02 03:40:54;;;;;;;;;;;3.40;99.90;;;2.71;100.00;101202.28;6204834;23;19907;-89
2021/01/02 03:43:52;;;;;;;;;;;3.30;99.90;;;2.67;100.00;101196.34;6202045;23;19915;-91
2021/01/02 03:46:36;;;;;;;;;;;3.30;99.90;;;2.65;100.00;101200.16;6103099;23;19908;-92
2021/01/02 03:49:10;;;;;;;;;;;3.30;99.90;;;2.65;100.00;101197.47;6083862;23;19953;-90
2021/01/02 03:54:28;;;;;;;;;;;3.40;99.90;;;2.75;100.00;101195.63;6055510;23;20404;-90
2021/01/02 03:56:57;;;;;;;;;;;3.90;99.90;;;2.79;100.00;101194.34;6144066;23;19908;-90
2021/01/02 03:59:41;;;;;;;;;;;3.30;99.90;;;2.87;100.00;101187.28;6228104;23;19927;-91
2021/01/02 04:02:10;;;;;;;;;;;3.40;99.90;;;2.99;100.00;101203.25;6227335;23;19907;-91
2021/01/02 04:04:40;;;;;;;;;;;3.50;99.90;;;3.09;100.00;101196.88;6202978;23;19910;-92
2021/01/02 04:07:12;;;;;;;;;;;3.60;99.90;;;3.18;100.00;101187.94;6225343;23;19911;-91
2021/01/02 04:09:44;;;;;;;;;;;3.30;99.90;;;3.37;100.00;101194.28;6180096;23;19908;-91
2021/01/02 04:19:15;;;;;;;;;;;3.90;99.90;;;3.67;100.00;101188.66;6261223;23;19910;-91
2021/01/02 04:21:41;;;;;;;;;;;4.00;99.90;;;3.71;100.00;101187.38;6224791;22;19917;-93
2021/01/02 04:24:07;;;;;;;;;;;4.70;99.90;;;3.72;100.00;101194.47;6224286;22;19896;-91
2021/01/02 04:26:48;;;;;;;;;;;4.10;99.90;;;3.74;100.00;101186.22;6199431;23;19922;-90
2021/01/02 04:29:23;;;;;;;;;;;4.10;99.90;;;3.67;100.00;101191.34;6187518;23;20374;-91
2021/01/02 04:32:15;;;;;;;;;;;4.20;99.90;;;3.62;100.00;101194.47;6184062;23;19934;-91
2021/01/02 04:34:58;;;;;;;;;;;4.20;99.90;;;3.57;100.00;101191.41;6211700;23;20038;-91
2021/01/02 04:38:06;;;;;;;;;;;4.10;99.90;;;3.69;100.00;101183.97;6228841;23;20346;-91
2021/01/02 04:40:31;;;;;;;;;;;4.20;99.90;;;3.61;100.00;101186.56;6228877;23;19904;-90
2021/01/02 04:43:23;;;;;;;;;;;4.00;99.90;;;3.56;100.00;101189.69;6201698;23;19910;-90
2021/01/02 04:46:03;;;;;;;;;;;4.20;99.90;;;3.59;100.00;101197.47;6182041;23;19916;-91
2021/01/02 04:49:08;;;;;;;;;;;;;;;;;;;;;
2021/01/02 04:51:57;;;;;;;;;;;;;;;;;;;;;
2021/01/02 04:57:37;;;;;;;;;;;5.10;99.90;;;3.44;100.00;101195.41;6221748;23;19910;-91
2021/01/02 05:00:18;;;;;;;;;;;4.10;99.90;;;3.37;100.00;101200.53;6200665;23;19950;-91
2021/01/02 05:02:47;;;;;;;;;;;4.10;99.90;;;3.32;100.00;101204.63;6201734;23;19907;-92
2021/01/02 05:05:23;;;;;;;;;;;4.00;99.90;;;3.29;100.00;101209.28;6201988;23;19904;-92
2021/01/02 05:08:07;;;;;;;;;;;;;;;;;;;;;
2021/01/02 05:10:39;;;;;;;;;;;3.90;99.90;;;3.27;100.00;101211.28;6207381;23;19938;-92
2021/01/02 05:13:20;;;;;;;;;;;;;;;;;;;;;
2021/01/02 05:15:46;;;;;;;;;;;3.90;99.90;;;3.40;100.00;101220.88;6228009;23;20005;-89
2021/01/02 05:18:16;;;;;;;;;;;4.30;99.90;;;3.43;100.00;101216.06;6200168;23;19910;-90
2021/01/02 05:20:42;;;;;;;;;;;4.80;99.90;;;3.49;100.00;101218.19;6200836;23;20304;-91
2021/01/02 05:23:16;;;;;;;;;;;5.10;99.90;;;3.54;100.00;101217.75;6225384;23;19942;-92
2021/01/02 05:25:47;;;;;;;;;;;4.10;99.90;;;3.54;100.00;101218.59;6194794;23;19912;-90
2021/01/02 05:28:20;;;;;;;;;;;4.10;99.90;;;3.54;100.00;101220.44;6171480;23;19908;-89
2021/01/02 05:30:46;;;;;;;;;;;4.10;99.90;;;3.54;100.00;101225.81;6196485;23;19978;-90
2021/01/02 05:33:16;;;;;;;;;;;5.00;99.90;;;3.54;100.00;101223.13;6196111;23;19983;-91
2021/01/02 05:35:44;;;;;;;;;;;4.10;99.90;;;3.58;100.00;101219.16;6196447;23;19998;-92
2021/01/02 05:38:26;;;;;;;;;;;4.10;99.90;;;3.60;100.00;101223.41;6220931;23;19934;-89
2021/01/02 05:40:56;;;;;;;;;;;4.20;99.90;;;3.61;100.00;101221.56;6196426;23;19994;-89
2021/01/02 05:43:26;;;;;;;;;;;4.20;99.90;;;3.61;100.00;101221.56;6197150;23;19904;-92
2021/01/02 05:45:52;;;;;;;;;;;4.70;99.90;;;3.54;100.00;101226.66;6222707;23;19915;-90
2021/01/02 05:48:23;;;;;;;;;;;4.90;99.90;;;3.44;100.00;101217.78;6197557;23;20403;-90
2021/01/02 05:50:49;;;;;;;;;;;4.10;99.90;;;3.36;100.00;101220.34;6197677;23;19908;-90
2021/01/02 05:53:18;;;;;;;;;;;4.70;99.90;;;3.31;100.00;101237.91;6222307;23;19911;-89
2021/01/02 05:55:47;;;;;;;;;;;3.70;99.90;;;3.32;100.00;101223.44;6223405;23;19908;-89
2021/01/02 05:58:18;;;;;;;;;;;4.00;99.90;;;3.38;100.00;101230.97;6199365;23;19914;-90
2021/01/02 06:00:46;;;;;;;;;;;3.90;99.90;;;3.42;100.00;101235.03;6200139;23;20002;-90
2021/01/02 06:03:27;;;;;;;;;;;3.70;99.90;;;3.47;100.00;101236.31;6206074;23;19970;-89
2021/01/02 06:06:09;;;;;;;;;;;3.90;99.90;;;3.55;100.00;101231.06;6199551;23;19911;-90
2021/01/02 06:08:49;;;;;;;;;;;4.00;99.90;;;3.61;100.00;101235.84;6202979;23;19979;-90
2021/01/02 06:11:23;;;;;;;;;;;4.00;99.90;;;3.63;100.00;101231.16;6227002;23;19904;-90
2021/01/02 06:13:56;;;;;;;;;;;4.20;99.90;;;3.65;100.00;101236.41;6197876;23;19995;-92
2021/01/02 06:16:42;;;;;;;;;;;4.20;99.90;;;3.69;100.00;101232.44;6198745;23;19904;-90
2021/01/02 06:19:15;;;;;;;;;;;4.30;99.90;;;3.71;100.00;101238.53;6204235;23;20368;-91
2021/01/02 06:21:47;;;;;;;;;;;4.30;99.90;;;3.74;100.00;101235.53;6197492;23;19904;-91
2021/01/02 06:24:14;;;;;;;;;;;4.30;99.90;;;3.82;100.00;101242.88;6173012;23;20465;-92
2021/01/02 06:26:45;;;;;;;;;;;4.40;99.90;;;3.84;100.00;101239.03;6197241;23;19918;-91
2021/01/02 06:29:28;;;;;;;;;;;4.40;99.90;;;3.91;100.00;101247.38;6148846;23;19908;-91
2021/01/02 06:32:12;;;;;;;;;;;5.50;99.90;;;3.94;100.00;101239.88;6112069;23;19908;-90
2021/01/02 06:34:38;;;;;;;;;;;4.60;99.90;;;3.99;100.00;101244.78;6161681;23;19908;-91
2021/01/02 06:37:03;;;;;;;;;;;5.40;99.90;;;4.03;100.00;101237.28;6161958;23;20268;-91
2021/01/02 06:39:31;;;;;;;;;;;5.00;99.90;;;4.08;100.00;101249.28;6161838;23;19905;-91
2021/01/02 06:42:20;;;;;;;;;;;4.70;99.90;;;4.08;100.00;101254.66;6162667;23;19915;-91
2021/01/02 06:44:46;;;;;;;;;;;4.70;99.90;;;4.10;100.00;101246.44;6159595;23;19987;-94
2021/01/02 06:47:32;;;;;;;;;;;4.70;99.90;;;4.15;100.00;101250.41;6185935;23;20433;-89
2021/01/02 06:50:15;;;;;;;;;;;4.70;99.90;;;4.18;100.00;101243.84;6165169;23;19905;-88
2021/01/02 06:52:41;;;;;;;;;;;5.60;99.90;;;4.18;100.00;101251.94;6178733;23;19897;-89
2021/01/02 06:55:19;;;;;;;;;;;4.80;99.90;;;4.24;100.00;101248.66;6158364;23;19927;-90
2021/01/02 06:57:46;;;;;;;;;;;4.80;99.90;;;4.25;100.00;101244.97;6159682;23;19897;-91
2021/01/02 07:00:25;;;;;;;;;;;5.60;99.90;;;4.29;100.00;101246.34;6205555;23;19919;-90
2021/01/02 07:03:06;;;;;;;;;;;4.80;99.90;;;4.29;100.00;101246.34;6192451;23;19904;-88
2021/01/02 07:05:58;;;;;;;;;;;4.90;99.90;;;4.31;100.00;101255.13;6169188;23;19991;-88
2021/01/02 07:08:45;;;;;;;;;;;4.50;99.90;;;4.26;100.00;101252.06;6131059;23;19904;-88
2021/01/02 07:12:02;;;;;;;;;;;4.50;99.90;;;4.30;100.00;101258.81;6140068;23;19904;-87
2021/01/02 07:14:47;;;;;;;;;;;4.90;99.90;;;4.32;100.00;101262.22;6178342;23;19904;-89
2021/01/02 07:17:36;;;;;;;;;;;4.90;99.90;;;4.32;100.00;101262.22;6141674;23;19912;-87
2021/01/02 07:20:22;;;;;;;;;;;4.90;99.90;;;4.34;100.00;101260.22;6142804;23;19904;-87
2021/01/02 07:23:26;;;;;;;;;;;4.20;99.90;;;4.32;100.00;101263.06;6124097;23;20072;-89
2021/01/02 07:26:14;;;;;;;;;;;4.90;99.90;;;4.22;100.00;101264.13;6204884;23;19907;-90
2021/01/02 07:28:52;;;;;;;;;;;5.70;99.90;;;4.16;100.00;101267.41;6185161;23;19908;-91
2021/01/02 07:31:25;;;;;;;;;;;4.90;99.90;;;4.00;100.00;101268.88;6185935;23;19904;-89
2021/01/02 07:33:54;;;;;;;;;;;5.50;99.90;;;3.87;100.00;101279.13;6196644;23;19908;-91
2021/01/02 07:36:20;;;;;;;;;;;4.70;99.90;;;3.79;100.00;101270.94;6177004;23;19932;-90
2021/01/02 07:38:46;;;;;;;;;;;4.60;99.90;;;3.74;100.00;101273.22;6201112;23;19904;-89
2021/01/02 07:41:14;;;;;;;;;;;4.50;99.90;;;3.63;100.00;101270.69;6199828;23;19910;-91
2021/01/02 07:43:40;;;;;;;;;;;5.20;99.90;;;3.47;100.00;101282.06;6201463;23;19904;-93
2021/01/02 07:46:07;;;;;;;;;;;4.30;99.90;;;3.43;100.00;101285.19;6229259;23;19904;-93
2021/01/02 07:52:12;;;;;;;;;;;4.20;99.90;;;3.47;100.00;101286.59;6227551;23;19958;-92
2021/01/02 07:54:38;;;;;;;;;;;4.20;99.90;;;3.50;100.00;101289.00;6201861;23;19914;-92
2021/01/02 07:57:06;;;;;;;;;;;4.40;99.90;;;3.48;100.00;101291.00;6204534;23;19908;-89
2021/01/02 07:59:34;;;;;;;;;;;4.10;99.90;;;3.52;100.00;101295.06;6204944;23;19914;-90
2021/01/02 08:02:10;;;;;;;;;;;4.50;99.90;;;3.53;100.00;101299.47;6204321;23;19919;-92
2021/01/02 08:04:36;;;;;;;;;;;4.30;99.90;;;3.55;100.00;101300.19;6234287;23;19896;-93
2021/01/02 08:07:04;;;;;;;;;;;5.10;99.90;;;3.55;100.00;101301.03;6241150;23;19887;-91
2021/01/02 08:09:32;;;;;;;;;;;4.20;99.90;;;3.68;100.00;101311.50;6216665;23;19911;-92
2021/01/02 08:12:01;;;;;;;;;;;4.20;99.90;;;3.78;100.00;101309.63;6242026;22;19972;-91
2021/01/02 08:14:30;;;;;;;;;;;4.50;99.90;;;4.07;100.00;101314.06;6217263;22;19896;-90
2021/01/02 08:16:58;;;;;;;;;;;4.20;99.90;;;4.12;100.00;101314.50;6216710;23;19903;-91
2021/01/02 08:19:24;;;;;;;;;;;5.00;99.90;;;4.09;100.00;101317.47;6216658;23;19934;-90
2021/01/02 08:21:51;;;;;;;;;;;4.50;99.90;;;4.20;100.00;101322.69;6214444;23;19908;-92
2021/01/02 08:26:52;;;;;;;;;;;4.70;99.90;;;4.37;100.00;101324.63;6255239;22;19919;-90
2021/01/02 08:29:19;;;;;;;;;;;4.80;99.90;;;4.42;100.00;101330.38;6218657;23;19957;-92
2021/01/02 08:32:04;;;;;;;;;;;4.90;99.90;;;4.52;100.00;101323.09;6218546;23;19904;-92
2021/01/02 08:34:32;;;;;;;;;;;5.00;99.90;;;4.78;100.00;101327.81;6220216;23;19914;-92
2021/01/02 08:37:09;;;;;;;;;;;5.00;99.90;;;5.15;100.00;101330.41;6243967;22;19918;-91
2021/01/02 08:39:39;;;;;;;;;;;5.30;99.90;;;5.65;100.00;101327.97;6220267;23;20308;-93
2021/01/02 08:44:49;;;;;;;;;;;5.80;99.90;;;5.80;100.00;101331.81;6268167;22;20220;-92
2021/01/02 08:47:26;;;;;;;;;;;6.00;99.90;;;5.63;100.00;101332.72;6218734;23;19911;-92
2021/01/02 08:49:52;;;;;;;;;;;6.00;99.90;;;5.56;100.00;101335.16;6217485;23;19927;-92
2021/01/02 08:52:38;;;;;;;;;;;6.70;99.90;;;5.54;100.00;101331.75;6210531;23;19919;-94
2021/01/02 08:55:09;;;;;;;;;;;6.60;99.90;;;6.21;100.00;101334.84;6164288;23;19912;-92
2021/01/02 08:57:54;;;;;;;;;;;6.20;99.90;;;6.89;100.00;101336.47;6209135;23;19924;-91
2021/01/02 09:00:54;;;;;;;;;;;6.50;99.90;;;7.13;100.00;101337.56;6209506;23;19911;-93
2021/01/02 09:06:19;;;;;;;;;;;6.90;99.90;;;6.67;100.00;101342.47;6211051;22;19915;-93
2021/01/02 09:08:58;;;;;;;;;;;7.00;99.90;;;6.37;100.00;101343.03;6209512;22;19907;-92
2021/01/02 09:14:07;;;;;;;;;;;6.80;99.90;;;5.97;100.00;101344.47;6262219;22;19906;-94
2021/01/02 09:16:36;;;;;;;;;;;6.60;99.90;;;5.79;100.00;101340.91;6242140;23;19912;-93
2021/01/02 09:19:02;;;;;;;;;;;6.50;99.90;;;6.41;100.00;101336.28;6220062;23;19902;-91
2021/01/02 09:21:32;;;;;;;;;;;6.60;99.90;;;6.91;100.00;101339.88;6196919;23;19962;-92
2021/01/02 09:27:31;;;;;;;;;;;6.80;99.90;;;6.55;100.00;101339.22;6277541;22;19955;-92
2021/01/02 09:30:03;;;;;;;;;;;6.40;99.90;;;6.82;100.00;101340.00;6202225;22;19918;-92
2021/01/02 09:32:30;;;;;;;;;;;6.40;99.90;;;7.79;100.00;101339.34;6186984;22;19899;-91
2021/01/02 09:37:45;;;;;;;;;;;;;;;;;;;;;
2021/01/02 09:40:17;;;;;;;;;;;8.70;99.90;;;11.12;90.52;101344.09;6243423;23;19915;-91
2021/01/02 09:42:44;;;;;;;;;;;9.60;99.90;;;11.99;86.08;101342.06;6215047;23;19904;-92
2021/01/02 09:45:12;;;;;;;;;;;10.30;99.90;;;12.75;84.44;101341.31;6245225;23;19927;-93
2021/01/02 09:47:38;;;;;;;;;;;11.10;99.90;;;13.30;81.92;101340.31;6245429;23;19915;-93
2021/01/02 09:50:06;;;;;;;;;;;11.60;99.90;;;13.76;80.53;101351.34;6240570;23;19930;-92
2021/01/02 09:52:32;;;;;;;;;;;12.10;99.90;;;14.03;77.78;101343.97;6220943;23;19951;-92
2021/01/02 09:54:59;;;;;;;;;;;12.50;99.90;;;14.28;72.60;101352.38;6216510;23;19982;-91
2021/01/02 09:57:25;;;;;;;;;;;12.90;99.90;;;14.66;70.13;101350.66;6214624;23;19910;-93
2021/01/02 09:59:55;;;;;;;;;;;13.30;99.90;;;15.05;71.01;101354.31;6240774;23;19903;-91
2021/01/02 10:02:23;;;;;;;;;;;13.60;99.90;;;15.02;70.27;101360.22;6218137;23;19903;-91
2021/01/02 10:04:49;;;;;;;;;;;13.80;99.90;;;14.15;59.34;101351.31;6213359;23;19908;-92
2021/01/02 10:07:19;;;;;;;;;;;13.70;99.90;;;13.03;62.77;101358.47;6214946;23;19908;-91
2021/01/02 10:09:46;;;;;;;;;;;13.30;99.70;;;12.03;65.83;101358.03;6215047;23;19903;-91
2021/01/02 10:12:22;;;;;;;;;;;12.70;99.70;;;11.18;69.09;101358.81;6219262;23;19963;-93
2021/01/02 10:14:49;;;;;;;;;;;12.20;99.90;;;10.53;73.11;101356.94;6241834;23;20010;-91
2021/01/02 10:17:16;;;;;;;;;;;11.50;99.90;;;10.09;76.31;101360.41;6217470;23;19969;-92
2021/01/02 10:19:47;;;;;;;;;;;11.10;99.90;;;9.80;84.50;101361.19;6213524;23;19930;-92
2021/01/02 10:22:15;;;;;;;;;;;10.70;99.90;;;9.45;82.54;101359.94;6216162;23;19908;-92
2021/01/02 10:24:41;;;;;;;;;;;10.40;99.90;;;9.23;83.98;101362.63;6241575;23;19903;-91
2021/01/02 10:27:08;;;;;;;;;;;10.10;99.90;;;8.97;84.05;101362.94;6209083;23;19914;-91
2021/01/02 10:29:39;;;;;;;;;;;9.90;99.90;;;8.76;84.55;101355.41;6182977;23;19907;-90
2021/01/02 10:32:06;;;;;;;;;;;9.60;99.90;;;8.63;86.80;101363.25;6209060;23;19903;-92
2021/01/02 10:34:32;;;;;;;;;;;9.40;99.90;;;8.64;88.15;101362.22;6183551;23;20268;-91
2021/01/02 10:37:10;;;;;;;;;;;9.40;99.90;;;8.59;87.30;101361.88;6181005;23;19916;-93
2021/01/02 10:39:40;;;;;;;;;;;9.30;99.90;;;8.63;87.70;101365.97;6210455;23;19919;-92
2021/01/02 10:42:35;;;;;;;;;;;9.20;99.90;;;8.73;89.02;101372.03;6183233;23;19915;-92
2021/01/02 10:47:45;;;;;;;;;;;9.10;99.90;;;8.46;87.65;101359.75;6256472;22;19906;-92
2021/01/02 10:50:44;;;;;;;;;;;;;;;;;;;;;
2021/01/02 10:53:55;;;;;;;;;;;9.00;99.90;;;8.68;87.33;101355.44;6263863;23;19903;-91
2021/01/02 10:56:22;;;;;;;;;;;9.00;99.90;;;8.83;89.58;101348.22;6268829;23;19934;-93
2021/01/02 10:58:51;;;;;;;;;;;9.10;99.90;;;8.84;89.52;101358.06;6240496;23;19907;-92
2021/01/02 11:01:16;;;;;;;;;;;9.20;99.90;;;9.06;90.58;101357.28;6216149;23;19923;-92
2021/01/02 11:03:45;;;;;;;;;;;9.20;99.90;;;9.06;89.90;101349.13;6219022;23;19922;-94
2021/01/02 11:06:15;;;;;;;;;;;9.10;99.90;;;8.88;90.14;101350.44;6245967;23;19907;-90
2021/01/02 11:08:42;;;;;;;;;;;9.00;99.90;;;8.92;91.20;101355.31;6222298;23;19918;-92
2021/01/02 11:11:08;;;;;;;;;;;9.10;99.90;;;9.02;91.41;101345.09;6221995;22;19892;-90
2021/01/02 11:13:35;;;;;;;;;;;9.00;99.90;;;9.10;91.63;101353.19;6222824;23;19907;-93
2021/01/02 11:18:45;;;;;;;;;;;9.10;99.90;;;9.10;91.19;101347.75;6273228;22;19899;-91
2021/01/02 11:21:11;;;;;;;;;;;9.30;99.90;;;9.35;91.66;101339.47;6221972;23;19915;-90
2021/01/02 11:23:46;;;;;;;;;;;9.40;99.90;;;9.48;90.93;101334.25;6215093;23;19935;-90
2021/01/02 11:26:13;;;;;;;;;;;9.50;99.90;;;9.70;90.33;101333.44;6212432;23;19907;-91
2021/01/02 11:28:47;;;;;;;;;;;9.80;99.90;;;9.83;89.85;101328.19;6190275;23;19915;-90
2021/01/02 11:31:12;;;;;;;;;;;9.90;99.90;;;9.73;88.98;101330.31;6215551;23;19912;-90
2021/01/02 11:33:51;;;;;;;;;;;10.00;99.90;;;9.64;88.77;101323.25;6217762;23;19903;-92
2021/01/02 11:36:22;;;;;;;;;;;10.00;99.90;;;9.79;88.46;101323.31;6166329;23;19896;-91
2021/01/02 11:38:48;;;;;;;;;;;10.10;99.90;;;9.63;88.00;101321.56;6214618;23;19910;-91
2021/01/02 11:41:17;;;;;;;;;;;10.00;99.90;;;9.41;88.29;101322.44;6211276;23;19904;-91
2021/01/02 11:43:47;;;;;;;;;;;9.90;99.90;;;9.24;88.88;101329.00;6216399;23;19903;-91
2021/01/02 11:46:13;;;;;;;;;;;9.80;99.90;;;9.02;89.08;101323.38;6193293;23;19908;-93
2021/01/02 11:48:43;;;;;;;;;;;9.70;99.90;;;8.89;90.37;101319.53;6211591;23;19904;-92
2021/01/02 11:51:28;;;;;;;;;;;9.60;99.90;;;8.83;90.72;101323.78;6183317;23;19908;-91
2021/01/02 11:53:54;;;;;;;;;;;9.40;99.90;;;8.85;91.30;101316.31;6207544;23;19914;-92
2021/01/02 11:56:22;;;;;;;;;;;9.40;99.90;;;8.70;91.74;101312.66;6209596;23;19912;-93
2021/01/02 11:59:01;;;;;;;;;;;9.70;99.90;;;8.62;92.16;101315.41;6209620;23;19904;-95
2021/01/02 12:01:45;;;;;;;;;;;9.20;99.90;;;8.68;92.26;101314.72;6150350;23;19946;-90
2021/01/02 12:04:19;;;;;;;;;;;9.10;99.90;;;8.76;91.65;101311.97;6125910;23;19913;-92
2021/01/02 12:06:45;;;;;;;;;;;9.20;99.90;;;8.82;91.41;101310.41;6148715;23;19913;-90
2021/01/02 12:09:15;;;;;;;;;;;9.20;99.90;;;8.97;91.15;101314.91;6127506;23;19896;-91
2021/01/02 12:18:07;;;;;;;;;;;9.40;99.90;;;9.15;91.49;101308.34;6080661;23;19932;-89
2021/01/02 12:20:35;;;;;;;;;;;9.50;99.90;;;9.34;90.92;101310.59;6078287;23;19894;-92
2021/01/02 12:23:04;;;;;;;;;;;9.60;99.90;;;9.55;89.00;101315.38;6109503;23;19914;-91
2021/01/02 12:25:30;;;;;;;;;;;9.80;99.90;;;10.01;86.78;101316.13;6084968;23;19893;-89
2021/01/02 12:28:02;;;;;;;;;;;9.90;99.90;;;9.94;84.67;101317.88;6084401;23;20224;-91
2021/01/02 12:34:09;;;;;;;;;;;9.80;99.90;;;9.41;83.03;101322.44;6085342;23;19931;-92
2021/01/02 12:42:39;;;;;;;;;;;9.00;99.90;;;8.51;87.48;101324.78;6235700;23;19915;-89
2021/01/02 12:45:10;;;;;;;;;;;8.80;99.90;;;8.28;87.23;101330.09;6238767;23;19945;-87
2021/01/02 12:47:36;;;;;;;;;;;8.50;99.90;;;8.20;87.83;101321.13;6214392;23;19908;-88
2021/01/02 12:50:04;;;;;;;;;;;8.50;99.90;;;7.97;88.52;101337.28;6205671;23;20001;-90
2021/01/02 12:52:30;;;;;;;;;;;8.10;99.90;;;7.82;88.35;101328.13;6205291;23;20305;-90
2021/01/02 12:54:56;;;;;;;;;;;7.90;99.90;;;7.80;87.80;101332.88;6206591;23;19914;-89
2021/01/02 12:57:26;;;;;;;;;;;7.80;99.90;;;7.51;88.89;101331.53;6206146;23;19910;-89
2021/01/02 12:59:54;;;;;;;;;;;7.70;99.90;;;7.58;88.70;101320.84;6210556;23;19943;-89